Time;durP1;ratioP1;P1;durP2;ratioP2;P2;SDS_P1;SDS_P2;PMS_P1;PMS_P2;Temp;Humidity;BMP_temperature;BMP_pressure;BME280_temperature;BME280_humidity;BME280_pressure;Samples;Min_cycle;Max_cycle;Signal;HPM_P1;HPM_P2
2023/09/12 00:00:53;;;;;;;47.15;34.25;;;;;;;;;;5021307;27;99492;-62
2023/09/12 00:03:20;;;;;;;46.92;34.47;;;;;;;;;;5010898;27;98638;-62
2023/09/12 00:05:53;;;;;;;47.33;35.10;;;;;;;;;;5011839;27;100318;-61
2023/09/12 00:08:19;;;;;;;52.97;34.38;;;;;;;;;;5009834;27;98627;-62
2023/09/12 00:10:46;;;;;;;43.08;32.50;;;;;;;;;;5009324;27;99374;-62
2023/09/12 00:13:13;;;;;;;41.90;33.67;;;;;;;;;;5022835;27;100407;-61
2023/09/12 00:15:39;;;;;;;44.88;29.88;;;;;;;;;;5011583;27;98573;-62
2023/09/12 00:18:06;;;;;;;39.00;30.63;;;;;;;;;;5013383;27;99272;-61
2023/09/12 00:20:32;;;;;;;38.03;30.35;;;;;;;;;;5008713;27;99560;-61
2023/09/12 00:22:59;;;;;;;40.20;28.65;;;;;;;;;;5011339;27;97803;-61
2023/09/12 00:25:25;;;;;;;41.15;34.25;;;;;;;;;;5012846;27;98532;-61
2023/09/12 00:27:51;;;;;;;40.95;29.73;;;;;;;;;;5009321;27;98607;-61
2023/09/12 00:30:18;;;;;;;43.70;32.90;;;;;;;;;;5008143;27;99342;-61
2023/09/12 00:32:45;;;;;;;49.70;37.28;;;;;;;;;;5009427;27;99390;-61
2023/09/12 00:35:12;;;;;;;37.00;32.25;;;;;;;;;;5009002;27;98510;-61
2023/09/12 00:37:38;;;;;;;35.88;28.38;;;;;;;;;;5014353;27;99220;-61
2023/09/12 00:40:05;;;;;;;35.92;28.33;;;;;;;;;;5011754;27;99463;-61
2023/09/12 00:42:31;;;;;;;38.45;31.25;;;;;;;;;;5012965;27;98498;-61
2023/09/12 00:44:58;;;;;;;36.35;30.48;;;;;;;;;;5008749;27;99217;-61
2023/09/12 00:47:25;;;;;;;36.80;27.90;;;;;;;;;;5020264;27;99102;-61
2023/09/12 00:49:52;;;;;;;35.13;29.42;;;;;;;;;;5017157;27;98536;-61
2023/09/12 00:52:24;;;;;;;33.63;29.17;;;;;;;;;;5009123;27;99487;-61
2023/09/12 00:54:51;;;;;;;35.63;28.00;;;;;;;;;;5008780;27;99402;-61
2023/09/12 00:57:17;;;;;;;38.25;30.15;;;;;;;;;;5008862;27;99971;-61
2023/09/12 00:59:44;;;;;;;51.55;39.28;;;;;;;;;;5008286;27;99520;-61
2023/09/12 01:02:10;;;;;;;48.08;35.97;;;;;;;;;;5009106;27;98471;-61
2023/09/12 01:04:37;;;;;;;51.30;39.28;;;;;;;;;;5013009;27;99214;-62
2023/09/12 01:07:04;;;;;;;52.80;40.13;;;;;;;;;;5012660;27;100439;-62
2023/09/12 01:09:31;;;;;;;46.30;37.88;;;;;;;;;;5012272;27;98606;-62
2023/09/12 01:11:59;;;;;;;50.78;38.80;;;;;;;;;;5015987;27;99730;-61
2023/09/12 01:14:25;;;;;;;46.13;37.88;;;;;;;;;;5008443;27;98732;-62
2023/09/12 01:16:51;;;;;;;44.30;37.13;;;;;;;;;;5009902;27;99204;-62
2023/09/12 01:19:19;;;;;;;29.80;25.35;;;;;;;;;;5011980;27;100206;-61
2023/09/12 01:22:07;;;;;;;27.00;23.98;;;;;;;;;;5012315;27;98587;-61
2023/09/12 01:24:52;;;;;;;30.13;27.00;;;;;;;;;;5008268;27;99748;-61
2023/09/12 01:27:18;;;;;;;40.50;36.08;;;;;;;;;;5010792;27;99506;-62
2023/09/12 01:29:45;;;;;;;40.15;35.53;;;;;;;;;;5013658;27;98549;-62
2023/09/12 01:32:13;;;;;;;46.88;39.67;;;;;;;;;;5011719;27;100224;-62
2023/09/12 01:34:40;;;;;;;44.30;39.38;;;;;;;;;;5008184;27;98642;-62
2023/09/12 01:37:06;;;;;;;39.20;33.42;;;;;;;;;;5028887;27;100466;-62
2023/09/12 01:39:32;;;;;;;42.38;35.55;;;;;;;;;;5007845;27;99337;-62
2023/09/12 01:41:59;;;;;;;38.70;33.83;;;;;;;;;;5008218;27;98704;-62
2023/09/12 01:44:27;;;;;;;39.90;35.60;;;;;;;;;;5007529;27;99708;-61
2023/09/12 01:46:54;;;;;;;34.75;29.67;;;;;;;;;;5008464;27;99449;-62
2023/09/12 01:49:22;;;;;;;47.60;36.15;;;;;;;;;;5007554;27;98692;-63
2023/09/12 01:51:48;;;;;;;47.20;42.35;;;;;;;;;;5008652;27;100240;-61
2023/09/12 01:54:15;;;;;;;37.55;33.38;;;;;;;;;;5015251;27;99579;-62
2023/09/12 01:56:42;;;;;;;37.70;33.65;;;;;;;;;;5007743;27;101110;-61
2023/09/12 01:59:08;;;;;;;34.90;31.20;;;;;;;;;;5007985;27;99515;-62
2023/09/12 02:01:34;;;;;;;41.83;37.85;;;;;;;;;;5008220;27;98000;-62
2023/09/12 02:04:01;;;;;;;37.50;32.83;;;;;;;;;;5011915;27;98460;-62
2023/09/12 02:06:28;;;;;;;37.65;34.13;;;;;;;;;;5006953;27;99579;-62
2023/09/12 02:08:54;;;;;;;37.17;33.75;;;;;;;;;;5007795;27;99443;-62
2023/09/12 02:11:20;;;;;;;33.00;29.80;;;;;;;;;;5007758;27;100026;-62
2023/09/12 02:13:47;;;;;;;30.70;27.70;;;;;;;;;;5006840;27;99546;-61
2023/09/12 02:16:13;;;;;;;36.22;32.70;;;;;;;;;;5012515;27;98525;-61
2023/09/12 02:18:40;;;;;;;36.10;32.38;;;;;;;;;;5007306;27;99742;-61
2023/09/12 02:21:07;;;;;;;30.77;27.58;;;;;;;;;;5005613;27;99147;-61
2023/09/12 02:23:33;;;;;;;35.70;32.20;;;;;;;;;;5010180;27;100299;-60
2023/09/12 02:26:00;;;;;;;34.70;31.17;;;;;;;;;;5008350;27;98716;-62
2023/09/12 02:28:26;;;;;;;28.02;25.20;;;;;;;;;;5007304;27;98638;-61
2023/09/12 02:30:53;;;;;;;29.48;26.35;;;;;;;;;;5007443;27;99166;-62
2023/09/12 02:33:19;;;;;;;33.70;28.10;;;;;;;;;;5007085;27;100102;-62
2023/09/12 02:35:45;;;;;;;28.95;23.90;;;;;;;;;;5011009;27;98571;-62
2023/09/12 02:38:12;;;;;;;35.60;32.25;;;;;;;;;;5007003;27;99481;-62
2023/09/12 02:40:38;;;;;;;39.58;35.72;;;;;;;;;;5007097;27;98543;-61
2023/09/12 02:43:05;;;;;;;34.72;31.17;;;;;;;;;;5007960;27;100293;-61
2023/09/12 02:45:31;;;;;;;38.30;34.28;;;;;;;;;;5012226;27;99816;-61
2023/09/12 02:47:58;;;;;;;32.95;29.48;;;;;;;;;;5012210;27;98618;-61
2023/09/12 02:50:24;;;;;;;38.28;34.25;;;;;;;;;;5010460;27;99284;-61
2023/09/12 02:52:51;;;;;;;35.33;31.77;;;;;;;;;;5010843;27;99522;-61
2023/09/12 02:55:17;;;;;;;26.50;23.38;;;;;;;;;;5011135;27;98754;-61
2023/09/12 02:57:44;;;;;;;26.63;24.10;;;;;;;;;;5013282;27;100374;-60
2023/09/12 03:00:11;;;;;;;28.08;23.85;;;;;;;;;;5011236;27;98618;-61
2023/09/12 03:02:37;;;;;;;23.73;21.20;;;;;;;;;;5010960;27;99197;-61
2023/09/12 03:05:04;;;;;;;27.48;24.73;;;;;;;;;;5010080;27;100019;-61
2023/09/12 03:07:30;;;;;;;24.27;21.95;;;;;;;;;;5011564;27;98663;-61
2023/09/12 03:09:57;;;;;;;27.67;25.00;;;;;;;;;;5010861;27;99310;-61
2023/09/12 03:12:23;;;;;;;26.23;23.52;;;;;;;;;;5009956;27;99554;-61
2023/09/12 03:14:50;;;;;;;24.75;22.42;;;;;;;;;;5010448;27;97825;-61
2023/09/12 03:17:16;;;;;;;21.48;19.42;;;;;;;;;;5012875;27;99672;-61
2023/09/12 03:19:42;;;;;;;19.70;18.05;;;;;;;;;;5014126;27;99471;-61
2023/09/12 03:22:09;;;;;;;26.27;24.00;;;;;;;;;;5019151;27;99413;-60
2023/09/12 03:24:35;;;;;;;22.52;20.40;;;;;;;;;;5013614;27;99474;-61
2023/09/12 03:27:02;;;;;;;29.52;27.05;;;;;;;;;;5010908;27;98733;-61
2023/09/12 03:29:29;;;;;;;23.38;21.10;;;;;;;;;;5014185;27;99286;-61
2023/09/12 03:31:55;;;;;;;24.83;22.20;;;;;;;;;;5009887;27;100557;-61
2023/09/12 03:34:21;;;;;;;22.10;20.00;;;;;;;;;;5010662;27;98522;-61
2023/09/12 03:36:48;;;;;;;20.48;18.42;;;;;;;;;;5010245;27;99191;-60
2023/09/12 03:39:14;;;;;;;27.17;24.58;;;;;;;;;;5009843;27;98793;-61
2023/09/12 03:41:41;;;;;;;31.08;28.00;;;;;;;;;;5013018;27;98997;-61
2023/09/12 03:44:08;;;;;;;23.65;21.58;;;;;;;;;;5009900;27;99422;-60
2023/09/12 03:46:34;;;;;;;29.42;26.63;;;;;;;;;;5010584;27;99260;-61
2023/09/12 03:49:00;;;;;;;28.05;25.38;;;;;;;;;;5010261;27;104024;-61
2023/09/12 03:51:27;;;;;;;28.75;25.75;;;;;;;;;;5008792;27;99483;-61
2023/09/12 03:53:53;;;;;;;23.35;21.25;;;;;;;;;;5009948;27;98523;-62
2023/09/12 03:56:19;;;;;;;22.80;20.58;;;;;;;;;;5009396;27;99257;-61
2023/09/12 03:58:46;;;;;;;23.42;21.20;;;;;;;;;;5008807;27;99483;-61
2023/09/12 04:01:14;;;;;;;21.80;19.60;;;;;;;;;;5010243;27;99068;-61
2023/09/12 04:03:40;;;;;;;31.35;27.83;;;;;;;;;;5013030;27;99228;-61
2023/09/12 04:06:07;;;;;;;30.08;25.60;;;;;;;;;;5009362;27;98831;-62
2023/09/12 04:08:33;;;;;;;33.55;30.10;;;;;;;;;;5014465;27;99504;-61
2023/09/12 04:11:00;;;;;;;24.40;21.92;;;;;;;;;;5009286;27;101274;-61
2023/09/12 04:13:26;;;;;;;25.08;22.58;;;;;;;;;;5009442;27;98681;-61
2023/09/12 04:15:52;;;;;;;24.30;21.63;;;;;;;;;;5008384;27;99199;-61
2023/09/12 04:18:19;;;;;;;28.92;26.35;;;;;;;;;;5011426;27;99483;-61
2023/09/12 04:20:45;;;;;;;25.75;20.17;;;;;;;;;;5009506;27;98723;-62
2023/09/12 04:23:12;;;;;;;25.50;23.30;;;;;;;;;;5014737;27;100441;-61
2023/09/12 04:25:41;;;;;;;24.80;22.40;;;;;;;;;;5009283;27;98698;-62
2023/09/12 04:28:07;;;;;;;34.65;24.70;;;;;;;;;;5010129;27;100277;-61
2023/09/12 04:30:35;;;;;;;23.40;21.25;;;;;;;;;;5009758;27;100633;-61
2023/09/12 04:33:01;;;;;;;28.35;25.58;;;;;;;;;;5009694;27;98653;-61
2023/09/12 04:35:29;;;;;;;23.42;21.35;;;;;;;;;;5008339;27;100373;-62
2023/09/12 04:37:55;;;;;;;23.48;21.20;;;;;;;;;;5009590;27;99485;-62
2023/09/12 04:40:22;;;;;;;20.80;18.33;;;;;;;;;;5013632;27;98466;-61
2023/09/12 04:42:48;;;;;;;25.10;22.70;;;;;;;;;;5008718;27;99679;-62
2023/09/12 04:45:14;;;;;;;24.52;22.27;;;;;;;;;;5011970;27;99489;-62
2023/09/12 04:47:41;;;;;;;25.30;23.00;;;;;;;;;;5011095;27;100578;-62
2023/09/12 04:50:07;;;;;;;21.65;19.73;;;;;;;;;;5008464;27;99471;-61
2023/09/12 04:52:34;;;;;;;24.25;21.85;;;;;;;;;;5009464;27;97852;-62
2023/09/12 04:55:01;;;;;;;20.10;18.00;;;;;;;;;;5013598;27;98539;-62
2023/09/12 04:57:30;;;;;;;23.63;20.95;;;;;;;;;;5008572;27;99697;-62
2023/09/12 04:59:58;;;;;;;30.27;27.53;;;;;;;;;;5008593;27;99526;-61
2023/09/12 05:02:25;;;;;;;27.13;24.88;;;;;;;;;;5016968;27;99921;-61
2023/09/12 05:04:52;;;;;;;34.85;22.70;;;;;;;;;;5008842;27;100443;-61
2023/09/12 05:07:18;;;;;;;25.38;23.02;;;;;;;;;;5011828;27;98570;-62
2023/09/12 05:09:45;;;;;;;28.17;25.67;;;;;;;;;;5007487;27;99456;-61
2023/09/12 05:12:11;;;;;;;36.92;33.45;;;;;;;;;;5009218;27;98460;-62
2023/09/12 05:14:38;;;;;;;41.72;37.67;;;;;;;;;;5008779;27;99174;-62
2023/09/12 05:17:04;;;;;;;52.17;46.80;;;;;;;;;;5010745;27;98744;-62
2023/09/12 05:19:31;;;;;;;68.45;61.47;;;;;;;;;;5008067;27;98967;-62
2023/09/12 05:21:57;;;;;;;62.60;55.78;;;;;;;;;;5013330;27;99695;-61
2023/09/12 05:24:24;;;;;;;49.38;43.85;;;;;;;;;;5009053;27;100358;-61
2023/09/12 05:26:50;;;;;;;55.95;49.22;;;;;;;;;;5007948;27;98687;-62
2023/09/12 05:29:17;;;;;;;54.75;46.80;;;;;;;;;;5011779;27;99226;-62
2023/09/12 05:31:43;;;;;;;50.20;43.30;;;;;;;;;;5007976;27;98785;-62
2023/09/12 05:34:09;;;;;;;53.58;44.20;;;;;;;;;;5008256;27;100273;-62
2023/09/12 05:36:36;;;;;;;50.80;43.03;;;;;;;;;;5007488;27;99637;-61
2023/09/12 05:39:03;;;;;;;48.88;41.53;;;;;;;;;;5008458;27;98717;-62
2023/09/12 05:41:29;;;;;;;48.28;38.15;;;;;;;;;;5008590;27;100272;-61
2023/09/12 05:43:56;;;;;;;45.83;38.60;;;;;;;;;;5015663;27;100674;-61
2023/09/12 05:46:22;;;;;;;46.08;36.28;;;;;;;;;;5014112;27;98523;-61
2023/09/12 05:48:48;;;;;;;43.17;33.88;;;;;;;;;;5007702;27;99591;-61
2023/09/12 05:51:15;;;;;;;33.00;24.80;;;;;;;;;;5010425;27;99915;-61
2023/09/12 05:53:41;;;;;;;30.30;26.75;;;;;;;;;;5016230;27;100319;-62
2023/09/12 05:56:08;;;;;;;39.45;27.40;;;;;;;;;;5007890;27;100516;-61
2023/09/12 05:58:35;;;;;;;42.53;29.67;;;;;;;;;;5007813;27;98645;-62
2023/09/12 06:01:02;;;;;;;35.78;28.83;;;;;;;;;;5011048;27;99215;-61
2023/09/12 06:03:29;;;;;;;32.80;27.85;;;;;;;;;;5008018;27;103602;-62
2023/09/12 06:05:55;;;;;;;39.60;35.67;;;;;;;;;;5010262;27;97831;-61
2023/09/12 06:08:22;;;;;;;37.25;31.67;;;;;;;;;;5009547;27;98474;-60
2023/09/12 06:10:48;;;;;;;45.65;34.00;;;;;;;;;;5006669;27;100445;-62
2023/09/12 06:13:15;;;;;;;59.22;41.58;;;;;;;;;;5010905;27;99383;-61
2023/09/12 06:15:41;;;;;;;59.22;40.85;;;;;;;;;;5011044;27;99411;-62
2023/09/12 06:18:08;;;;;;;59.30;44.88;;;;;;;;;;5009637;27;98608;-62
2023/09/12 06:20:35;;;;;;;61.35;44.78;;;;;;;;;;5009109;27;100087;-62
2023/09/12 06:23:01;;;;;;;65.80;44.05;;;;;;;;;;5020661;27;99835;-62
2023/09/12 06:25:29;;;;;;;62.13;43.88;;;;;;;;;;5012205;27;98529;-62
2023/09/12 06:27:55;;;;;;;58.72;41.47;;;;;;;;;;5012526;27;99207;-62
2023/09/12 06:30:21;;;;;;;59.65;41.15;;;;;;;;;;5013363;27;98779;-62
2023/09/12 06:32:48;;;;;;;49.40;38.72;;;;;;;;;;5013939;27;98624;-62
2023/09/12 06:35:14;;;;;;;62.88;43.70;;;;;;;;;;5011202;27;100565;-66
2023/09/12 06:37:41;;;;;;;64.32;43.85;;;;;;;;;;5010253;27;99330;-62
2023/09/12 06:40:07;;;;;;;63.72;45.95;;;;;;;;;;5011075;27;99976;-62
2023/09/12 06:42:34;;;;;;;68.18;43.58;;;;;;;;;;5010400;27;100479;-62
2023/09/12 06:45:00;;;;;;;59.78;42.75;;;;;;;;;;5011006;27;98581;-62
2023/09/12 06:47:26;;;;;;;71.32;49.13;;;;;;;;;;5017167;27;99234;-62
2023/09/12 06:49:53;;;;;;;62.67;40.70;;;;;;;;;;5012359;27;99805;-63
2023/09/12 06:52:22;;;;;;;64.63;43.58;;;;;;;;;;5010609;27;98757;-62
2023/09/12 06:54:48;;;;;;;70.65;47.42;;;;;;;;;;5013804;27;99370;-62
2023/09/12 06:57:14;;;;;;;68.20;48.35;;;;;;;;;;5010122;27;98543;-62
2023/09/12 06:59:41;;;;;;;69.15;44.45;;;;;;;;;;5019838;27;99357;-62
2023/09/12 07:02:09;;;;;;;63.97;43.05;;;;;;;;;;5010038;27;100361;-62
2023/09/12 07:04:36;;;;;;;77.65;43.60;;;;;;;;;;5013529;27;98612;-62
2023/09/12 07:07:04;;;;;;;73.20;48.72;;;;;;;;;;5013808;27;99277;-62
2023/09/12 07:09:30;;;;;;;61.80;40.03;;;;;;;;;;5012168;27;99584;-62
2023/09/12 07:11:57;;;;;;;63.63;37.78;;;;;;;;;;5010893;27;98458;-61
2023/09/12 07:14:25;;;;;;;62.67;40.17;;;;;;;;;;5009826;27;99301;-62
2023/09/12 07:16:52;;;;;;;65.10;39.13;;;;;;;;;;5016655;27;99453;-62
2023/09/12 07:19:18;;;;;;;61.53;38.00;;;;;;;;;;5011137;27;100568;-62
2023/09/12 07:21:44;;;;;;;59.97;37.85;;;;;;;;;;5009964;27;99482;-62
2023/09/12 07:24:11;;;;;;;66.75;43.80;;;;;;;;;;5031913;27;98465;-61
2023/09/12 07:26:37;;;;;;;61.58;40.13;;;;;;;;;;5014398;27;99520;-62
2023/09/12 07:29:05;;;;;;;58.38;36.72;;;;;;;;;;5009571;27;99594;-61
2023/09/12 07:31:31;;;;;;;58.10;36.88;;;;;;;;;;5008082;27;98502;-61
2023/09/12 07:33:58;;;;;;;69.18;40.92;;;;;;;;;;5009954;27;99343;-61
2023/09/12 07:36:24;;;;;;;60.20;38.03;;;;;;;;;;5009798;27;100438;-61
2023/09/12 07:38:51;;;;;;;62.08;40.15;;;;;;;;;;5013107;27;99180;-62
2023/09/12 07:41:18;;;;;;;60.08;37.65;;;;;;;;;;5009751;27;99782;-62
2023/09/12 07:43:45;;;;;;;67.70;40.05;;;;;;;;;;5010577;27;97770;-62
2023/09/12 07:46:12;;;;;;;52.80;35.50;;;;;;;;;;5011523;27;98536;-62
2023/09/12 07:48:38;;;;;;;58.65;36.13;;;;;;;;;;5010249;27;99429;-62
2023/09/12 07:51:11;;;;;;;60.03;35.67;;;;;;;;;;5013447;27;99572;-62
2023/09/12 07:53:38;;;;;;;53.80;34.90;;;;;;;;;;5010059;27;100026;-61
2023/09/12 07:56:04;;;;;;;55.03;35.47;;;;;;;;;;5009768;27;99392;-62
2023/09/12 07:58:31;;;;;;;50.85;31.40;;;;;;;;;;5009726;27;98582;-62
2023/09/12 08:00:57;;;;;;;52.22;33.90;;;;;;;;;;5013999;27;101832;-62
2023/09/12 08:03:23;;;;;;;49.08;30.85;;;;;;;;;;5016937;27;98615;-61
2023/09/12 08:05:57;;;;;;;54.47;34.17;;;;;;;;;;5010144;27;99282;-62
2023/09/12 08:08:23;;;;;;;;;;;;;;;;;;5010327;27;98701;-60
2023/09/12 08:10:49;;;;;;;56.83;38.90;;;;;;;;;;5011219;27;120080;-62
2023/09/12 08:13:16;;;;;;;56.40;37.38;;;;;;;;;;5009290;27;99265;-62
2023/09/12 08:15:42;;;;;;;61.42;37.33;;;;;;;;;;5008163;27;100233;-62
2023/09/12 08:18:09;;;;;;;49.70;30.25;;;;;;;;;;5016690;27;98617;-61
2023/09/12 08:20:36;;;;;;;53.45;30.98;;;;;;;;;;5009169;27;99511;-61
2023/09/12 08:23:02;;;;;;;53.53;32.20;;;;;;;;;;5015781;27;99513;-61
2023/09/12 08:25:29;;;;;;;52.65;29.90;;;;;;;;;;5009461;27;99121;-61
2023/09/12 08:27:55;;;;;;;59.72;31.95;;;;;;;;;;5008726;27;99816;-62
2023/09/12 08:30:22;;;;;;;50.65;29.08;;;;;;;;;;5012806;27;98621;-61
2023/09/12 08:32:48;;;;;;;51.00;26.80;;;;;;;;;;5009520;27;99254;-61
2023/09/12 08:35:15;;;;;;;50.08;28.30;;;;;;;;;;5008830;27;99525;-62
2023/09/12 08:37:41;;;;;;;49.05;25.67;;;;;;;;;;5009001;27;98599;-62
2023/09/12 08:40:10;;;;;;;44.30;27.17;;;;;;;;;;5011204;27;99556;-61
2023/09/12 08:42:38;;;;;;;47.28;25.15;;;;;;;;;;5011387;27;99516;-62
2023/09/12 08:45:05;;;;;;;44.22;27.17;;;;;;;;;;5028373;27;99809;-62
2023/09/12 08:47:32;;;;;;;41.80;24.95;;;;;;;;;;5013929;27;99317;-61
2023/09/12 08:49:59;;;;;;;43.03;27.00;;;;;;;;;;5008124;27;98626;-61
2023/09/12 08:52:25;;;;;;;50.78;28.23;;;;;;;;;;5009871;27;99151;-62
2023/09/12 08:54:52;;;;;;;45.70;26.85;;;;;;;;;;5008418;27;99438;-61
2023/09/12 08:57:19;;;;;;;46.17;26.58;;;;;;;;;;5009403;27;97802;-62
2023/09/12 08:59:47;;;;;;;48.17;29.45;;;;;;;;;;5009223;27;98631;-61
2023/09/12 09:02:14;;;;;;;50.83;27.85;;;;;;;;;;5007982;27;100552;-62
2023/09/12 09:04:41;;;;;;;43.55;26.17;;;;;;;;;;5011888;27;99431;-62
2023/09/12 09:07:08;;;;;;;53.70;29.27;;;;;;;;;;5008378;27;98749;-62
2023/09/12 09:09:35;;;;;;;47.47;29.58;;;;;;;;;;5020652;27;98569;-62
2023/09/12 09:12:06;;;;;;;45.58;25.85;;;;;;;;;;5009060;27;100639;-62
2023/09/12 09:14:32;;;;;;;48.60;28.23;;;;;;;;;;5016400;27;99477;-61
2023/09/12 09:16:59;;;;;;;47.60;28.15;;;;;;;;;;5011795;27;98580;-61
2023/09/12 09:19:41;;;;;;;52.25;29.70;;;;;;;;;;5008196;27;99219;-61
2023/09/12 09:22:08;;;;;;;50.75;28.80;;;;;;;;;;5008928;27;99003;-61
2023/09/12 09:24:34;;;;;;;40.92;26.55;;;;;;;;;;5012454;27;98469;-61
2023/09/12 09:27:01;;;;;;;42.95;26.88;;;;;;;;;;5012046;27;99190;-61
2023/09/12 09:29:31;;;;;;;42.63;25.55;;;;;;;;;;5015051;27;99325;-61
2023/09/12 09:31:59;;;;;;;43.13;25.13;;;;;;;;;;5008900;27;100469;-61
2023/09/12 09:34:28;;;;;;;52.45;29.83;;;;;;;;;;5011857;27;99466;-61
2023/09/12 09:36:56;;;;;;;53.63;29.27;;;;;;;;;;5007146;27;98721;-61
2023/09/12 09:39:23;;;;;;;49.35;29.90;;;;;;;;;;5008840;27;100293;-61
2023/09/12 09:41:50;;;;;;;58.78;30.48;;;;;;;;;;5006610;27;99412;-61
2023/09/12 09:44:17;;;;;;;50.97;31.55;;;;;;;;;;5011602;27;98768;-61
2023/09/12 09:46:44;;;;;;;46.33;29.13;;;;;;;;;;5012823;27;99646;-62
2023/09/12 09:49:11;;;;;;;54.83;28.10;;;;;;;;;;5009730;27;100651;-61
2023/09/12 09:51:41;;;;;;;54.35;29.73;;;;;;;;;;5007866;27;98554;-62
2023/09/12 09:54:08;;;;;;;45.30;27.38;;;;;;;;;;5006351;27;102814;-61
2023/09/12 09:56:52;;;;;;;47.72;27.65;;;;;;;;;;5011360;27;98560;-61
2023/09/12 09:59:20;;;;;;;52.80;30.02;;;;;;;;;;5008411;27;99180;-61
2023/09/12 10:01:48;;;;;;;53.28;28.77;;;;;;;;;;5007438;27;100501;-61
2023/09/12 10:04:15;;;;;;;47.30;27.80;;;;;;;;;;5012029;27;98583;-61
2023/09/12 10:06:45;;;;;;;46.13;28.45;;;;;;;;;;5007703;27;99422;-61
2023/09/12 10:09:11;;;;;;;;;;;;;;;;;;5007788;27;100810;-61
2023/09/12 10:11:39;;;;;;;44.95;27.85;;;;;;;;;;5012429;27;120517;-61
2023/09/12 10:14:06;;;;;;;48.78;27.38;;;;;;;;;;5007636;27;100870;-61
2023/09/12 10:16:38;;;;;;;45.75;27.25;;;;;;;;;;5014844;27;98665;-61
2023/09/12 10:19:10;;;;;;;39.67;24.27;;;;;;;;;;5007708;27;99642;-61
2023/09/12 10:21:40;;;;;;;42.90;26.60;;;;;;;;;;5007004;27;99584;-61
2023/09/12 10:24:07;;;;;;;39.40;26.00;;;;;;;;;;5008551;27;98894;-61
2023/09/12 10:26:34;;;;;;;44.33;25.95;;;;;;;;;;5006854;27;99205;-61
2023/09/12 10:29:02;;;;;;;43.90;24.70;;;;;;;;;;5012059;27;100551;-61
2023/09/12 10:31:29;;;;;;;45.80;25.92;;;;;;;;;;5007378;27;98435;-61
2023/09/12 10:33:56;;;;;;;45.40;26.75;;;;;;;;;;5010521;27;99396;-60
2023/09/12 10:36:25;;;;;;;36.72;24.23;;;;;;;;;;5008472;27;97782;-60
2023/09/12 10:38:52;;;;;;;40.05;23.77;;;;;;;;;;5007944;27;98815;-60
2023/09/12 10:41:19;;;;;;;37.92;22.48;;;;;;;;;;5007011;27;99569;-61
2023/09/12 10:43:47;;;;;;;33.22;21.55;;;;;;;;;;5007790;27;99339;-60
2023/09/12 10:46:14;;;;;;;37.42;22.00;;;;;;;;;;5009228;27;100084;-61
2023/09/12 10:48:40;;;;;;;39.80;22.55;;;;;;;;;;5008102;27;100611;-61
2023/09/12 10:51:08;;;;;;;41.22;25.15;;;;;;;;;;5008359;27;98522;-62
2023/09/12 10:53:35;;;;;;;34.13;22.27;;;;;;;;;;5009915;27;99269;-61
2023/09/12 10:56:16;;;;;;;36.78;23.35;;;;;;;;;;5012304;27;98602;-61
2023/09/12 10:59:03;;;;;;;37.38;23.33;;;;;;;;;;5007300;27;99151;-61
2023/09/12 11:01:30;;;;;;;36.05;24.55;;;;;;;;;;5006997;27;99259;-61
2023/09/12 11:03:57;;;;;;;33.22;20.88;;;;;;;;;;5007662;27;98886;-61
2023/09/12 11:06:30;;;;;;;26.45;18.23;;;;;;;;;;5008360;27;99233;-61
2023/09/12 11:09:16;;;;;;;30.42;19.48;;;;;;;;;;5014443;27;101359;-61
2023/09/12 11:12:03;;;;;;;33.28;21.15;;;;;;;;;;5010789;27;98521;-61
2023/09/12 11:14:29;;;;;;;27.17;18.73;;;;;;;;;;5010688;27;99497;-61
2023/09/12 11:17:08;;;;;;;28.88;19.35;;;;;;;;;;5017710;27;99996;-61
2023/09/12 11:19:44;;;;;;;24.77;17.60;;;;;;;;;;5010576;27;99424;-61
2023/09/12 11:22:31;;;;;;;32.95;20.65;;;;;;;;;;5010995;27;100628;-61
2023/09/12 11:25:01;;;;;;;29.52;17.55;;;;;;;;;;5011039;27;98504;-61
2023/09/12 11:27:31;;;;;;;25.33;15.02;;;;;;;;;;5011729;27;100200;-61
2023/09/12 11:30:04;;;;;;;27.52;18.33;;;;;;;;;;5010184;27;99321;-61
2023/09/12 11:32:32;;;;;;;28.52;17.20;;;;;;;;;;5010068;27;98577;-61
2023/09/12 11:34:59;;;;;;;27.73;16.88;;;;;;;;;;5010314;27;99372;-61
2023/09/12 11:37:26;;;;;;;28.33;17.17;;;;;;;;;;5013884;27;99477;-61
2023/09/12 11:39:53;;;;;;;24.55;13.70;;;;;;;;;;5021987;27;101623;-61
2023/09/12 11:42:22;;;;;;;25.52;16.23;;;;;;;;;;5009567;27;99560;-61
2023/09/12 11:44:49;;;;;;;28.55;16.38;;;;;;;;;;5014015;27;99076;-61
2023/09/12 11:47:15;;;;;;;24.02;15.27;;;;;;;;;;5014035;27;100456;-61
2023/09/12 11:49:42;;;;;;;23.55;14.82;;;;;;;;;;5013338;27;99455;-61
2023/09/12 11:52:12;;;;;;;17.67;12.57;;;;;;;;;;5020278;27;97821;-60
2023/09/12 11:54:40;;;;;;;22.35;12.73;;;;;;;;;;5016527;27;99491;-61
2023/09/12 11:57:07;;;;;;;21.70;14.15;;;;;;;;;;5009651;27;100589;-60
2023/09/12 11:59:36;;;;;;;20.17;12.38;;;;;;;;;;5022894;27;100671;-60
2023/09/12 12:02:05;;;;;;;19.77;12.80;;;;;;;;;;5019575;27;100141;-60
2023/09/12 12:04:32;;;;;;;25.63;14.45;;;;;;;;;;5009478;27;98769;-61
2023/09/12 12:06:59;;;;;;;18.55;13.43;;;;;;;;;;5014881;27;100284;-60
2023/09/12 12:09:25;;;;;;;24.25;14.23;;;;;;;;;;5009701;27;99644;-60
2023/09/12 12:11:52;;;;;;;18.80;12.13;;;;;;;;;;5012773;27;98593;-60
2023/09/12 12:14:19;;;;;;;21.10;14.30;;;;;;;;;;5009565;27;99214;-60
2023/09/12 12:16:46;;;;;;;22.95;12.77;;;;;;;;;;5014564;27;98676;-61
2023/09/12 12:19:13;;;;;;;14.43;11.40;;;;;;;;;;5008674;27;98530;-61
2023/09/12 12:21:42;;;;;;;72.40;66.25;;;;;;;;;;5009337;27;100638;-58
2023/09/12 12:24:13;;;;;;;172.02;158.30;;;;;;;;;;5012512;27;100220;-58
2023/09/12 12:26:45;;;;;;;259.65;239.52;;;;;;;;;;5008851;27;100385;-59
2023/09/12 12:29:13;;;;;;;235.98;216.68;;;;;;;;;;5012348;27;99399;-58
2023/09/12 12:31:39;;;;;;;212.55;195.68;;;;;;;;;;5007705;27;98621;-59
2023/09/12 12:34:06;;;;;;;176.45;161.10;;;;;;;;;;5008364;27;99130;-59
2023/09/12 12:36:53;;;;;;;208.32;191.07;;;;;;;;;;5008208;27;99205;-59
2023/09/12 12:39:24;;;;;;;183.35;168.82;;;;;;;;;;5008104;27;99113;-59
2023/09/12 12:41:54;;;;;;;199.02;182.90;;;;;;;;;;5009191;27;100615;-59
2023/09/12 12:44:21;;;;;;;221.18;203.43;;;;;;;;;;5030421;27;99567;-59
2023/09/12 12:46:51;;;;;;;255.18;233.38;;;;;;;;;;5017265;27;98955;-59
2023/09/12 12:49:19;;;;;;;198.02;182.13;;;;;;;;;;5007396;27;101369;-59
2023/09/12 12:51:46;;;;;;;339.52;310.27;;;;;;;;;;5007296;27;99030;-59
2023/09/12 12:54:13;;;;;;;393.08;360.05;;;;;;;;;;5006536;27;99474;-60
2023/09/12 12:56:39;;;;;;;334.25;306.58;;;;;;;;;;5007595;27;99537;-59
2023/09/12 12:59:08;;;;;;;577.00;528.75;;;;;;;;;;5007462;27;98554;-59
2023/09/12 13:01:34;;;;;;;;;;;;;;;;;;5007947;27;99364;-59
2023/09/12 13:04:01;;;;;;;590.28;537.78;;;;;;;;;;5009335;27;130088;-59
2023/09/12 13:06:29;;;;;;;530.10;481.65;;;;;;;;;;5016774;27;97765;-59
2023/09/12 13:08:59;;;;;;;545.80;496.67;;;;;;;;;;5011094;27;99529;-59
2023/09/12 13:11:26;;;;;;;343.05;314.88;;;;;;;;;;5008091;27;98626;-59
2023/09/12 13:13:53;;;;;;;384.77;354.15;;;;;;;;;;5007332;27;99713;-59
2023/09/12 13:16:19;;;;;;;415.05;380.73;;;;;;;;;;5012299;27;99422;-59
2023/09/12 13:18:46;;;;;;;420.90;384.40;;;;;;;;;;5007536;27;98476;-59
2023/09/12 13:21:12;;;;;;;528.67;481.83;;;;;;;;;;5008085;27;99409;-59
2023/09/12 13:23:39;;;;;;;406.27;369.90;;;;;;;;;;5009971;27;99463;-59
2023/09/12 13:26:07;;;;;;;307.40;282.98;;;;;;;;;;5006354;27;98765;-59
2023/09/12 13:28:34;;;;;;;405.65;370.02;;;;;;;;;;5022027;27;100892;-59
2023/09/12 13:31:00;;;;;;;461.65;421.52;;;;;;;;;;5009700;27;97908;-59
2023/09/12 13:33:26;;;;;;;522.47;476.38;;;;;;;;;;5007095;27;98534;-59
2023/09/12 13:35:53;;;;;;;541.17;492.90;;;;;;;;;;5008132;27;100899;-59
2023/09/12 13:38:19;;;;;;;529.22;483.13;;;;;;;;;;5009852;27;99326;-59
2023/09/12 13:40:46;;;;;;;428.45;389.70;;;;;;;;;;5011414;27;100049;-59
2023/09/12 13:43:12;;;;;;;460.15;419.65;;;;;;;;;;5006800;27;99500;-59
2023/09/12 13:45:39;;;;;;;494.88;447.52;;;;;;;;;;5014772;27;98631;-59
2023/09/12 13:48:06;;;;;;;607.30;554.65;;;;;;;;;;5010408;27;99284;-59
2023/09/12 13:50:32;;;;;;;558.35;507.75;;;;;;;;;;5014618;27;99432;-59
2023/09/12 13:52:59;;;;;;;653.03;594.20;;;;;;;;;;5007671;27;99313;-59
2023/09/12 13:55:26;;;;;;;594.08;539.00;;;;;;;;;;5008046;27;98781;-59
2023/09/12 13:58:12;;;;;;;662.25;599.35;;;;;;;;;;5006864;27;99088;-59
2023/09/12 14:00:38;;;;;;;732.70;664.40;;;;;;;;;;5010009;27;99561;-58
2023/09/12 14:03:05;;;;;;;755.55;683.22;;;;;;;;;;5006335;27;100135;-62
2023/09/12 14:05:31;;;;;;;731.53;663.05;;;;;;;;;;5007092;27;98503;-62
2023/09/12 14:07:59;;;;;;;682.90;621.28;;;;;;;;;;5006350;27;99391;-59
2023/09/12 14:10:25;;;;;;;580.60;526.55;;;;;;;;;;5011092;27;99698;-61
2023/09/12 14:13:02;;;;;;;635.25;579.17;;;;;;;;;;5010567;27;98506;-61